createdAt,value
2018-02-27T00:00:32.625Z,100
2018-02-27T00:01:35.348Z,100
2018-02-27T00:02:37.777Z,100
2018-02-27T00:03:40.182Z,100
2018-02-27T00:04:42.887Z,100
2018-02-27T00:05:45.590Z,100
2018-02-27T00:06:47.984Z,100
2018-02-27T00:07:50.419Z,100
2018-02-27T00:08:52.826Z,100
2018-02-27T00:09:55.256Z,100
2018-02-27T00:10:57.670Z,100
2018-02-27T00:12:00.382Z,100
2018-02-27T00:13:03.078Z,100
2018-02-27T00:14:05.506Z,100
2018-02-27T00:15:07.909Z,100
2018-02-27T00:16:10.325Z,100
2018-02-27T00:17:13.026Z,100
2018-02-27T00:18:15.723Z,100
2018-02-27T00:19:18.141Z,100
2018-02-27T00:20:20.556Z,100
2018-02-27T00:21:22.966Z,100
2018-02-27T00:22:25.389Z,100
2018-02-27T00:23:27.796Z,100
2018-02-27T00:24:30.209Z,100
2018-02-27T00:25:32.622Z,100
2018-02-27T00:26:35.041Z,100
2018-02-27T00:27:37.453Z,100
2018-02-27T00:28:39.870Z,100
2018-02-27T00:29:42.280Z,100
2018-02-27T00:30:44.964Z,100
2018-02-27T00:31:47.373Z,100
2018-02-27T00:32:49.789Z,100
2018-02-27T00:33:52.205Z,100
2018-02-27T00:34:54.621Z,100
2018-02-27T00:35:57.035Z,100
2018-02-27T00:36:59.452Z,100
2018-02-27T00:38:02.162Z,100
2018-02-27T00:39:04.871Z,100
2018-02-27T00:40:07.274Z,100
2018-02-27T00:41:10.269Z,100
2018-02-27T00:42:12.675Z,100
2018-02-27T00:43:15.084Z,100
2018-02-27T00:44:17.782Z,100
2018-02-27T00:45:20.195Z,100
2018-02-27T00:46:22.606Z,100
2018-02-27T00:47:25.028Z,100
2018-02-27T00:48:27.438Z,100
2018-02-27T00:49:29.850Z,100
2018-02-27T00:50:32.548Z,100
2018-02-27T00:51:34.970Z,100
2018-02-27T00:52:37.368Z,100
2018-02-27T00:53:39.781Z,100
2018-02-27T00:54:42.196Z,100
2018-02-27T00:55:44.610Z,100
2018-02-27T00:56:47.042Z,100
2018-02-27T00:57:49.447Z,100
2018-02-27T00:58:51.866Z,100
2018-02-27T00:59:54.276Z,100
2018-02-27T01:00:56.689Z,100
2018-02-27T01:01:59.088Z,100
2018-02-27T01:03:01.510Z,100
2018-02-27T01:04:03.930Z,100
2018-02-27T01:05:06.349Z,100
2018-02-27T01:06:08.755Z,100
2018-02-27T01:07:11.175Z,100
2018-02-27T01:08:13.592Z,100
2018-02-27T01:09:16.007Z,100
2018-02-27T01:10:18.416Z,100
2018-02-27T01:11:20.841Z,100
2018-02-27T01:12:23.242Z,100
2018-02-27T01:13:25.700Z,100
2018-02-27T01:14:28.070Z,100
2018-02-27T01:15:30.492Z,100
2018-02-27T01:16:32.907Z,100
2018-02-27T01:17:35.315Z,100
2018-02-27T01:18:37.734Z,100
2018-02-27T01:19:40.156Z,100
2018-02-27T01:20:42.559Z,100
2018-02-27T01:21:44.984Z,100
2018-02-27T01:22:47.389Z,100
2018-02-27T01:23:49.803Z,100
2018-02-27T01:24:52.225Z,100
2018-02-27T01:25:54.641Z,100
2018-02-27T01:26:57.051Z,100
2018-02-27T01:27:59.465Z,100
2018-02-27T01:29:01.888Z,100
2018-02-27T01:30:04.301Z,100
2018-02-27T01:31:07.304Z,100
2018-02-27T01:32:09.717Z,100
2018-02-27T01:33:12.133Z,100
2018-02-27T01:34:14.547Z,100
2018-02-27T01:35:16.972Z,100
2018-02-27T01:36:19.674Z,100
2018-02-27T01:37:22.368Z,100
2018-02-27T01:38:24.779Z,100
2018-02-27T01:39:27.196Z,100
2018-02-27T01:40:29.606Z,100
2018-02-27T01:41:32.019Z,100
2018-02-27T01:42:34.435Z,100
2018-02-27T01:43:36.858Z,100
2018-02-27T01:44:39.271Z,100
2018-02-27T01:45:41.688Z,100
2018-02-27T01:46:44.098Z,100
2018-02-27T01:47:46.525Z,100
2018-02-27T01:48:48.933Z,100
2018-02-27T01:49:51.640Z,100
2018-02-27T01:50:54.063Z,100
2018-02-27T01:51:56.759Z,100
2018-02-27T01:52:59.173Z,100
2018-02-27T01:54:01.593Z,100
2018-02-27T01:55:04.283Z,100
2018-02-27T01:56:06.710Z,100
2018-02-27T01:57:09.124Z,100
2018-02-27T01:58:11.535Z,100
2018-02-27T01:59:13.948Z,100
2018-02-27T02:00:16.375Z,100
2018-02-27T02:01:18.776Z,100
2018-02-27T02:02:21.485Z,100
2018-02-27T02:03:23.907Z,100
2018-02-27T02:04:26.323Z,100
2018-02-27T02:05:29.034Z,100
2018-02-27T02:06:31.438Z,100
2018-02-27T02:07:33.850Z,100
2018-02-27T02:08:36.273Z,100
2018-02-27T02:09:38.683Z,100
2018-02-27T02:10:41.092Z,100
2018-02-27T02:11:43.509Z,100
2018-02-27T02:12:45.931Z,100
2018-02-27T02:13:48.348Z,100
2018-02-27T02:14:51.055Z,100
2018-02-27T02:15:53.467Z,100
2018-02-27T02:16:55.888Z,100
2018-02-27T02:17:58.594Z,100
2018-02-27T02:19:01.010Z,100
2018-02-27T02:20:03.415Z,100
2018-02-27T02:21:05.830Z,100
2018-02-27T02:22:08.248Z,100
2018-02-27T02:23:10.664Z,100
2018-02-27T02:24:13.085Z,100
2018-02-27T02:25:15.791Z,100
2018-02-27T02:26:18.489Z,100
2018-02-27T02:27:20.913Z,100
2018-02-27T02:28:23.604Z,100
2018-02-27T02:29:26.315Z,100
2018-02-27T02:30:28.743Z,100
2018-02-27T02:31:31.151Z,100
2018-02-27T02:32:33.576Z,100
2018-02-27T02:33:36.590Z,100
2018-02-27T02:34:39.279Z,100
2018-02-27T02:35:41.720Z,100
2018-02-27T02:36:44.131Z,100
2018-02-27T02:37:46.546Z,100
2018-02-27T02:38:49.249Z,100
2018-02-27T02:39:52.549Z,100
2018-02-27T02:40:54.972Z,100
2018-02-27T02:41:57.399Z,100
2018-02-27T02:42:59.796Z,100
2018-02-27T02:44:02.223Z,100
2018-02-27T02:45:04.639Z,100
2018-02-27T02:46:07.044Z,100
2018-02-27T02:47:09.747Z,100
2018-02-27T02:48:12.165Z,100
2018-02-27T02:49:14.583Z,100
2018-02-27T02:50:16.993Z,100
2018-02-27T02:51:19.694Z,100
2018-02-27T02:52:22.109Z,100
2018-02-27T02:53:24.533Z,100
2018-02-27T02:54:26.949Z,100
2018-02-27T02:55:29.361Z,100
2018-02-27T02:56:31.780Z,100
2018-02-27T02:57:34.202Z,100
2018-02-27T02:58:36.610Z,100
2018-02-27T02:59:39.032Z,100
2018-02-27T03:00:41.448Z,100
2018-02-27T03:01:43.854Z,100
2018-02-27T03:02:46.264Z,100
2018-02-27T03:03:48.678Z,100
2018-02-27T03:04:51.086Z,100
2018-02-27T03:05:54.388Z,100
2018-02-27T03:06:57.109Z,100
2018-02-27T03:07:59.504Z,100
2018-02-27T03:09:01.931Z,100
2018-02-27T03:10:04.350Z,100
2018-02-27T03:11:07.048Z,100
2018-02-27T03:12:09.753Z,100
2018-02-27T03:13:12.164Z,100
2018-02-27T03:14:14.579Z,100
2018-02-27T03:15:16.985Z,100
2018-02-27T03:16:19.402Z,100
2018-02-27T03:17:21.809Z,100
2018-02-27T03:18:24.523Z,100
2018-02-27T03:19:26.936Z,100
2018-02-27T03:20:29.353Z,100
2018-02-27T03:21:31.772Z,100
2018-02-27T03:22:34.187Z,100
2018-02-27T03:23:36.611Z,100
2018-02-27T03:24:39.018Z,100
2018-02-27T03:25:41.429Z,100
2018-02-27T03:26:44.132Z,100
2018-02-27T03:27:46.542Z,100
2018-02-27T03:28:49.242Z,100
2018-02-27T03:29:51.651Z,100
2018-02-27T03:30:54.060Z,100
2018-02-27T03:31:56.478Z,100
2018-02-27T03:32:58.891Z,100
2018-02-27T03:34:01.586Z,100
2018-02-27T03:35:04.007Z,100
2018-02-27T03:36:06.420Z,100
2018-02-27T03:37:08.838Z,100
2018-02-27T03:38:11.260Z,100
2018-02-27T03:39:13.670Z,100
2018-02-27T03:40:16.083Z,100
2018-02-27T03:41:18.514Z,100
2018-02-27T03:42:20.914Z,100
2018-02-27T03:43:23.610Z,100
2018-02-27T03:44:26.031Z,100
2018-02-27T03:45:28.437Z,100
2018-02-27T03:46:30.849Z,100
2018-02-27T03:47:33.266Z,100
2018-02-27T03:48:35.684Z,100
2018-02-27T03:49:38.096Z,100
2018-02-27T03:50:40.518Z,100
2018-02-27T03:51:42.930Z,100
2018-02-27T03:52:45.935Z,100
2018-02-27T03:53:48.354Z,100
2018-02-27T03:54:50.761Z,100
2018-02-27T03:55:53.176Z,100
2018-02-27T03:56:55.901Z,100
2018-02-27T03:57:58.584Z,100
2018-02-27T03:59:00.999Z,100
2018-02-27T04:00:03.414Z,100
2018-02-27T04:01:06.116Z,100
2018-02-27T04:02:08.524Z,100
2018-02-27T04:03:11.518Z,100
2018-02-27T04:04:13.937Z,100
2018-02-27T04:05:16.352Z,100
2018-02-27T04:06:18.758Z,100
2018-02-27T04:07:21.752Z,100
2018-02-27T04:08:24.157Z,100
2018-02-27T04:09:26.578Z,100
2018-02-27T04:10:28.989Z,100
2018-02-27T04:11:31.405Z,100
2018-02-27T04:12:33.821Z,100
2018-02-27T04:13:36.235Z,100
2018-02-27T04:14:38.658Z,100
2018-02-27T04:15:41.068Z,100
2018-02-27T04:16:43.821Z,100
2018-02-27T04:17:46.187Z,100
2018-02-27T04:18:48.611Z,100
2018-02-27T04:19:51.022Z,100
2018-02-27T04:20:53.435Z,100
2018-02-27T04:21:55.841Z,100
2018-02-27T04:22:58.248Z,100
2018-02-27T04:24:00.970Z,100
2018-02-27T04:25:03.667Z,100
2018-02-27T04:26:06.067Z,100
2018-02-27T04:27:08.822Z,100
2018-02-27T04:28:11.474Z,100
2018-02-27T04:29:13.877Z,100
2018-02-27T04:30:16.294Z,100
2018-02-27T04:31:18.702Z,100
2018-02-27T04:32:21.117Z,100
2018-02-27T04:33:23.550Z,100
2018-02-27T04:34:26.546Z,100
2018-02-27T04:35:28.960Z,100
2018-02-27T04:36:31.376Z,100
2018-02-27T04:37:33.788Z,100
2018-02-27T04:38:36.201Z,100
2018-02-27T04:39:38.934Z,100
2018-02-27T04:40:41.334Z,100
2018-02-27T04:41:44.035Z,100
2018-02-27T04:42:46.448Z,100
2018-02-27T04:43:48.856Z,100
2018-02-27T04:44:51.572Z,100
2018-02-27T04:45:53.986Z,100
2018-02-27T04:46:56.396Z,100
2018-02-27T04:47:58.820Z,100
2018-02-27T04:49:01.229Z,100
2018-02-27T04:50:03.954Z,100
2018-02-27T04:51:06.680Z,100
2018-02-27T04:52:09.666Z,100
2018-02-27T04:53:12.078Z,100
2018-02-27T04:54:14.492Z,100
2018-02-27T04:55:17.187Z,100
2018-02-27T04:56:19.608Z,100
2018-02-27T04:57:22.032Z,100
2018-02-27T04:58:24.446Z,100
2018-02-27T04:59:26.846Z,100
2018-02-27T05:00:29.554Z,100
2018-02-27T05:01:31.973Z,100
2018-02-27T05:02:34.388Z,100
2018-02-27T05:03:36.801Z,100
2018-02-27T05:04:39.216Z,100
2018-02-27T05:05:41.632Z,100
2018-02-27T05:06:44.059Z,100
2018-02-27T05:07:46.476Z,100
2018-02-27T05:08:48.883Z,100
2018-02-27T05:09:51.303Z,100
2018-02-27T05:10:53.999Z,100
2018-02-27T05:11:56.425Z,100
2018-02-27T05:12:58.835Z,100
2018-02-27T05:14:01.248Z,100
2018-02-27T05:15:03.671Z,100
2018-02-27T05:16:06.369Z,100
2018-02-27T05:17:08.784Z,100
2018-02-27T05:18:11.512Z,100
2018-02-27T05:19:14.226Z,100
2018-02-27T05:20:16.639Z,100
2018-02-27T05:21:19.071Z,100
2018-02-27T05:22:21.482Z,100
2018-02-27T05:23:23.895Z,100
2018-02-27T05:24:26.604Z,100
2018-02-27T05:25:29.022Z,100
2018-02-27T05:26:31.744Z,100
2018-02-27T05:27:34.456Z,100
2018-02-27T05:28:36.872Z,100
2018-02-27T05:29:39.577Z,100
2018-02-27T05:30:42.285Z,100
2018-02-27T05:31:45.029Z,100
2018-02-27T05:32:47.455Z,100
2018-02-27T05:33:49.862Z,100
2018-02-27T05:34:52.279Z,100
2018-02-27T05:35:54.690Z,100
2018-02-27T05:36:57.109Z,100
2018-02-27T05:37:59.526Z,100
2018-02-27T05:39:02.231Z,100
2018-02-27T05:40:04.920Z,100
2018-02-27T05:41:07.344Z,100
2018-02-27T05:42:09.760Z,100
2018-02-27T05:43:12.180Z,100
2018-02-27T05:44:14.602Z,100
2018-02-27T05:45:17.008Z,100
2018-02-27T05:46:19.718Z,100
2018-02-27T05:47:22.143Z,100
2018-02-27T05:48:24.832Z,100
2018-02-27T05:49:27.251Z,100
2018-02-27T05:50:29.661Z,100
2018-02-27T05:51:32.077Z,100
2018-02-27T05:52:34.500Z,100
2018-02-27T05:53:37.210Z,100
2018-02-27T05:54:39.896Z,100
2018-02-27T05:55:42.598Z,100
2018-02-27T05:56:45.031Z,100
2018-02-27T05:57:47.434Z,100
2018-02-27T05:58:49.847Z,100
2018-02-27T05:59:52.301Z,100
2018-02-27T06:00:54.961Z,100
2018-02-27T06:01:57.387Z,100
2018-02-27T06:02:59.809Z,100
2018-02-27T06:04:02.498Z,100
2018-02-27T06:05:05.504Z,100
2018-02-27T06:06:07.918Z,100
2018-02-27T06:07:10.337Z,100
2018-02-27T06:08:12.747Z,100
2018-02-27T06:09:15.166Z,100
2018-02-27T06:10:17.864Z,100
2018-02-27T06:11:20.279Z,100
2018-02-27T06:12:22.697Z,100
2018-02-27T06:13:25.113Z,100
2018-02-27T06:14:27.521Z,100
2018-02-27T06:15:29.942Z,100
2018-02-27T06:16:32.345Z,100
2018-02-27T06:17:35.043Z,100
2018-02-27T06:18:37.460Z,100
2018-02-27T06:19:39.877Z,100
2018-02-27T06:20:42.294Z,100
2018-02-27T06:21:45.005Z,100
2018-02-27T06:22:47.454Z,100
2018-02-27T06:23:50.140Z,100
2018-02-27T06:24:52.558Z,100
2018-02-27T06:25:54.973Z,100
2018-02-27T06:26:57.384Z,100
2018-02-27T06:27:59.800Z,100
2018-02-27T06:29:02.500Z,100
2018-02-27T06:30:04.919Z,100
2018-02-27T06:31:07.337Z,100
2018-02-27T06:32:09.756Z,100
2018-02-27T06:33:12.171Z,100
2018-02-27T06:34:14.631Z,100
2018-02-27T06:35:16.997Z,100
2018-02-27T06:36:19.415Z,100
2018-02-27T06:37:21.868Z,100
2018-02-27T06:38:24.244Z,100
2018-02-27T06:39:26.950Z,100
2018-02-27T06:40:29.649Z,100
2018-02-27T06:41:32.067Z,100
2018-02-27T06:42:34.766Z,100
2018-02-27T06:43:37.470Z,100
2018-02-27T06:44:39.900Z,100
2018-02-27T06:45:42.308Z,100
2018-02-27T06:46:44.723Z,100
2018-02-27T06:47:47.146Z,100
2018-02-27T06:48:49.553Z,100
2018-02-27T06:49:51.975Z,100
2018-02-27T06:50:54.731Z,100
2018-02-27T06:51:57.137Z,100
2018-02-27T06:52:59.563Z,100
2018-02-27T06:54:01.976Z,100
2018-02-27T06:55:04.391Z,100
2018-02-27T06:56:06.795Z,100
2018-02-27T06:57:09.214Z,100
2018-02-27T06:58:11.926Z,100
2018-02-27T06:59:14.345Z,100
2018-02-27T07:00:16.775Z,100
2018-02-27T07:01:19.178Z,100
2018-02-27T07:02:21.585Z,100
2018-02-27T07:03:24.021Z,100
2018-02-27T07:04:26.422Z,100
2018-02-27T07:05:28.829Z,100
2018-02-27T07:06:31.244Z,100
2018-02-27T07:07:33.656Z,100
2018-02-27T07:08:36.082Z,100
2018-02-27T07:09:38.511Z,100
2018-02-27T07:10:40.913Z,100
2018-02-27T07:11:43.331Z,100
2018-02-27T07:12:45.752Z,100
2018-02-27T07:13:48.167Z,100
2018-02-27T07:14:50.584Z,100
2018-02-27T07:15:53.012Z,100
2018-02-27T07:16:55.709Z,100
2018-02-27T07:17:58.139Z,100
2018-02-27T07:19:00.562Z,100
2018-02-27T07:20:03.274Z,100
2018-02-27T07:21:05.693Z,100
2018-02-27T07:22:08.113Z,100
2018-02-27T07:23:10.519Z,100
2018-02-27T07:24:12.925Z,100
2018-02-27T07:25:15.350Z,100
2018-02-27T07:26:17.760Z,100
2018-02-27T07:27:20.472Z,100
2018-02-27T07:28:22.893Z,100
2018-02-27T07:29:25.611Z,100
2018-02-27T07:30:28.021Z,100
2018-02-27T07:31:30.434Z,100
2018-02-27T07:32:32.860Z,100
2018-02-27T07:33:35.578Z,100
2018-02-27T07:34:38.001Z,100
2018-02-27T07:35:40.417Z,100
2018-02-27T07:36:43.120Z,100
2018-02-27T07:37:45.832Z,100
2018-02-27T07:38:48.262Z,100
2018-02-27T07:39:50.679Z,100
2018-02-27T07:40:53.377Z,100
2018-02-27T07:41:55.802Z,100
2018-02-27T07:42:58.220Z,100
2018-02-27T07:44:00.655Z,100
2018-02-27T07:45:03.074Z,100
2018-02-27T07:46:05.779Z,100
2018-02-27T07:47:08.205Z,100
2018-02-27T07:48:10.621Z,100
2018-02-27T07:49:13.040Z,100
2018-02-27T07:50:15.456Z,100
2018-02-27T07:51:17.869Z,100
2018-02-27T07:52:20.280Z,100
2018-02-27T07:53:22.706Z,100
2018-02-27T07:54:25.126Z,100
2018-02-27T07:55:27.547Z,100
2018-02-27T07:56:29.964Z,98
2018-02-27T07:57:32.390Z,98
2018-02-27T07:58:35.106Z,96
2018-02-27T07:59:37.518Z,95
2018-02-27T08:00:39.947Z,95
2018-02-27T08:01:42.648Z,95
2018-02-27T08:02:45.066Z,94
2018-02-27T08:03:47.502Z,94
2018-02-27T08:04:49.921Z,94
2018-02-27T08:05:52.336Z,94
2018-02-27T08:06:55.046Z,94
2018-02-27T08:07:57.467Z,95
2018-02-27T08:08:59.890Z,95
2018-02-27T08:10:02.635Z,94
2018-02-27T08:11:05.038Z,93
2018-02-27T08:12:07.464Z,93
2018-02-27T08:13:10.177Z,93
2018-02-27T08:14:12.601Z,93
2018-02-27T08:15:15.035Z,92
2018-02-27T08:16:17.452Z,92
2018-02-27T08:17:19.867Z,91
2018-02-27T08:18:22.292Z,92
2018-02-27T08:19:24.706Z,92
2018-02-27T08:20:27.149Z,93
2018-02-27T08:21:30.155Z,93
2018-02-27T08:22:32.865Z,93
2018-02-27T08:23:35.288Z,93
2018-02-27T08:24:37.719Z,93
2018-02-27T08:25:40.147Z,93
2018-02-27T08:26:42.573Z,94
2018-02-27T08:27:44.991Z,94
2018-02-27T08:28:47.421Z,94
2018-02-27T08:29:50.127Z,94
2018-02-27T08:30:52.830Z,95
2018-02-27T08:31:55.526Z,96
2018-02-27T08:32:58.274Z,95
2018-02-27T08:34:00.695Z,97
2018-02-27T08:35:03.125Z,97
2018-02-27T08:36:05.543Z,98
2018-02-27T08:37:07.962Z,98
2018-02-27T08:38:10.391Z,99
2018-02-27T08:39:12.807Z,99
2018-02-27T08:40:15.234Z,99
2018-02-27T08:41:17.652Z,100
2018-02-27T08:42:20.073Z,100
2018-02-27T08:43:22.521Z,100
2018-02-27T08:44:24.940Z,100
2018-02-27T08:45:27.636Z,100
2018-02-27T08:46:30.350Z,100
2018-02-27T08:47:32.768Z,100
2018-02-27T08:48:35.191Z,100
2018-02-27T08:49:37.625Z,100
2018-02-27T08:50:40.032Z,100
2018-02-27T08:51:42.459Z,100
2018-02-27T08:52:44.888Z,100
2018-02-27T08:53:47.302Z,100
2018-02-27T08:54:49.727Z,100
2018-02-27T08:55:52.717Z,100
2018-02-27T08:56:55.142Z,100
2018-02-27T08:57:57.834Z,100
2018-02-27T08:59:00.534Z,100
2018-02-27T09:00:03.255Z,100
2018-02-27T09:01:05.675Z,100
2018-02-27T09:02:08.097Z,100
2018-02-27T09:03:10.518Z,100
2018-02-27T09:04:12.937Z,100
2018-02-27T09:05:15.367Z,100
2018-02-27T09:06:18.085Z,100
2018-02-27T09:07:20.484Z,100
2018-02-27T09:08:22.909Z,100
2018-02-27T09:09:25.614Z,100
2018-02-27T09:10:28.029Z,100
2018-02-27T09:11:30.450Z,100
2018-02-27T09:12:33.164Z,100
2018-02-27T09:13:35.578Z,100
2018-02-27T09:14:38.015Z,100
2018-02-27T09:15:40.706Z,100
2018-02-27T09:16:43.127Z,100
2018-02-27T09:17:45.559Z,100
2018-02-27T09:18:47.981Z,100
2018-02-27T09:19:50.406Z,100
2018-02-27T09:20:52.827Z,100
2018-02-27T09:21:55.242Z,100
2018-02-27T09:22:57.654Z,100
2018-02-27T09:24:00.082Z,100
2018-02-27T09:25:02.785Z,100
2018-02-27T09:26:05.196Z,100
2018-02-27T09:27:07.624Z,100
2018-02-27T09:28:10.041Z,100
2018-02-27T09:29:12.465Z,100
2018-02-27T09:30:14.900Z,100
2018-02-27T09:31:17.309Z,100
2018-02-27T09:32:19.737Z,100
2018-02-27T09:33:22.161Z,100
2018-02-27T09:34:24.571Z,100
2018-02-27T09:35:26.989Z,100
2018-02-27T09:36:29.405Z,100
2018-02-27T09:37:32.185Z,100
2018-02-27T09:38:34.618Z,100
2018-02-27T09:39:36.969Z,100
2018-02-27T09:40:39.395Z,100
2018-02-27T09:41:41.800Z,100
2018-02-27T09:42:44.233Z,100
2018-02-27T09:43:46.650Z,100
2018-02-27T09:44:49.381Z,100
2018-02-27T09:45:51.807Z,100
2018-02-27T09:46:54.566Z,100
2018-02-27T09:47:56.989Z,100
2018-02-27T09:48:59.414Z,100
2018-02-27T09:50:02.441Z,100
2018-02-27T09:51:04.822Z,100
2018-02-27T09:52:07.567Z,100
2018-02-27T09:53:09.949Z,100
2018-02-27T09:54:12.365Z,100
2018-02-27T09:55:14.800Z,100
2018-02-27T09:56:17.211Z,100
2018-02-27T09:57:19.642Z,100
2018-02-27T09:58:22.064Z,100
2018-02-27T09:59:24.775Z,100
2018-02-27T10:00:27.199Z,100
2018-02-27T10:01:29.620Z,100
2018-02-27T10:02:32.040Z,100
2018-02-27T10:03:34.473Z,100
2018-02-27T10:04:36.902Z,100
2018-02-27T10:05:39.319Z,100
2018-02-27T10:06:42.304Z,100
2018-02-27T10:07:44.734Z,100
2018-02-27T10:08:47.434Z,100
2018-02-27T10:09:49.859Z,100
2018-02-27T10:10:52.285Z,100
2018-02-27T10:11:54.713Z,100
2018-02-27T10:12:57.138Z,100
2018-02-27T10:13:59.567Z,100
2018-02-27T10:15:01.982Z,100
2018-02-27T10:16:04.732Z,100
2018-02-27T10:17:07.152Z,100
2018-02-27T10:18:09.571Z,100
2018-02-27T10:19:11.994Z,100
2018-02-27T10:20:14.412Z,100
2018-02-27T10:21:16.841Z,100
2018-02-27T10:22:19.589Z,100
2018-02-27T10:23:22.014Z,100
2018-02-27T10:24:24.429Z,100
2018-02-27T10:25:26.855Z,100
2018-02-27T10:26:29.285Z,100
2018-02-27T10:27:31.782Z,100
2018-02-27T10:28:34.148Z,100
2018-02-27T10:29:36.861Z,100
2018-02-27T10:30:39.304Z,100
2018-02-27T10:31:41.701Z,100
2018-02-27T10:32:44.127Z,100
2018-02-27T10:33:46.549Z,100
2018-02-27T10:34:49.282Z,100
2018-02-27T10:35:51.754Z,100
2018-02-27T10:36:54.139Z,100
2018-02-27T10:37:56.850Z,100
2018-02-27T10:38:59.266Z,100
2018-02-27T10:40:01.700Z,100
2018-02-27T10:41:04.128Z,100
2018-02-27T10:42:06.836Z,100
2018-02-27T10:43:09.547Z,100
2018-02-27T10:44:11.978Z,100
2018-02-27T10:45:14.400Z,100
2018-02-27T10:46:16.823Z,100
2018-02-27T10:47:19.520Z,100
2018-02-27T10:48:21.942Z,100
2018-02-27T10:49:24.375Z,100
2018-02-27T10:50:26.802Z,100
2018-02-27T10:51:29.220Z,100
2018-02-27T10:52:31.650Z,100
2018-02-27T10:53:34.066Z,100
2018-02-27T10:54:36.781Z,100
2018-02-27T10:55:39.205Z,100
2018-02-27T10:56:41.627Z,100
2018-02-27T10:57:44.346Z,100
2018-02-27T10:58:46.770Z,100
2018-02-27T10:59:49.189Z,100
2018-02-27T11:00:51.894Z,100
2018-02-27T11:01:54.326Z,100
2018-02-27T11:02:56.753Z,100
2018-02-27T11:03:59.469Z,100
2018-02-27T11:05:01.896Z,100
2018-02-27T11:06:04.323Z,100
2018-02-27T11:07:06.750Z,100
2018-02-27T11:08:09.179Z,100
2018-02-27T11:09:11.602Z,100
2018-02-27T11:10:14.041Z,100
2018-02-27T11:11:16.457Z,100
2018-02-27T11:12:19.171Z,100
2018-02-27T11:13:21.585Z,100
2018-02-27T11:14:24.010Z,100
2018-02-27T11:15:26.710Z,100
2018-02-27T11:16:29.132Z,100
2018-02-27T11:17:31.547Z,100
2018-02-27T11:18:34.257Z,100
2018-02-27T11:19:36.678Z,100
2018-02-27T11:20:39.110Z,100
2018-02-27T11:21:41.525Z,100
2018-02-27T11:22:43.941Z,100
2018-02-27T11:23:46.366Z,100
2018-02-27T11:24:48.789Z,100
2018-02-27T11:25:51.213Z,100
2018-02-27T11:26:53.622Z,100
2018-02-27T11:27:56.053Z,100
2018-02-27T11:28:58.460Z,100
2018-02-27T11:30:01.173Z,100
2018-02-27T11:31:03.592Z,100
2018-02-27T11:32:06.013Z,100
2018-02-27T11:33:08.435Z,100
2018-02-27T11:34:10.861Z,100
2018-02-27T11:35:13.275Z,100
2018-02-27T11:36:15.711Z,100
2018-02-27T11:37:18.115Z,100
2018-02-27T11:38:20.541Z,100
2018-02-27T11:39:22.971Z,100
2018-02-27T11:40:25.382Z,100
2018-02-27T11:41:27.802Z,100
2018-02-27T11:42:30.225Z,100
2018-02-27T11:43:32.638Z,100
2018-02-27T11:44:35.061Z,100
2018-02-27T11:45:37.481Z,100
2018-02-27T11:46:39.884Z,100
2018-02-27T11:47:42.315Z,100
2018-02-27T11:48:45.024Z,100
2018-02-27T11:49:47.739Z,100
2018-02-27T11:50:50.153Z,100
2018-02-27T11:51:52.867Z,100
2018-02-27T11:52:55.289Z,100
2018-02-27T11:53:57.986Z,100
2018-02-27T11:55:00.410Z,100
2018-02-27T11:56:02.833Z,100
2018-02-27T11:57:05.256Z,100
2018-02-27T11:58:08.261Z,100
2018-02-27T11:59:10.968Z,100
2018-02-27T12:00:13.384Z,100
2018-02-27T12:01:16.109Z,100
2018-02-27T12:02:18.836Z,98
2018-02-27T12:03:21.539Z,97
2018-02-27T12:04:23.957Z,96
2018-02-27T12:05:26.381Z,93
2018-02-27T12:06:28.800Z,92
2018-02-27T12:07:31.225Z,90
2018-02-27T12:08:33.646Z,88
2018-02-27T12:09:36.065Z,87
2018-02-27T12:10:39.093Z,87
2018-02-27T12:11:41.511Z,86
2018-02-27T12:12:43.940Z,87
2018-02-27T12:13:46.407Z,87
2018-02-27T12:14:48.785Z,87
2018-02-27T12:15:51.207Z,85
2018-02-27T12:16:53.641Z,86
2018-02-27T12:17:56.365Z,85
2018-02-27T12:18:59.084Z,86
2018-02-27T12:20:01.801Z,87
2018-02-27T12:21:04.227Z,86
2018-02-27T12:22:06.662Z,85
2018-02-27T12:23:09.376Z,81
2018-02-27T12:24:11.806Z,81
2018-02-27T12:25:14.513Z,80
2018-02-27T12:26:16.939Z,79
2018-02-27T12:27:19.360Z,76
2018-02-27T12:28:21.793Z,72
2018-02-27T12:29:24.206Z,71
2018-02-27T12:30:26.641Z,68
2018-02-27T12:31:29.351Z,69
2018-02-27T12:32:31.779Z,68
2018-02-27T12:33:34.213Z,67
2018-02-27T12:34:36.634Z,67
2018-02-27T12:35:39.053Z,67
2018-02-27T12:36:41.489Z,65
2018-02-27T12:37:43.913Z,66
2018-02-27T12:38:46.347Z,65
2018-02-27T12:39:48.782Z,63
2018-02-27T12:40:51.209Z,63
2018-02-27T12:41:53.924Z,63
2018-02-27T12:42:56.353Z,63
2018-02-27T12:43:58.770Z,62
2018-02-27T12:45:01.478Z,62
2018-02-27T12:46:04.194Z,61
2018-02-27T12:47:06.648Z,61
2018-02-27T12:48:09.048Z,62
2018-02-27T12:49:11.480Z,62
2018-02-27T12:50:13.903Z,62
2018-02-27T12:51:16.324Z,61
2018-02-27T12:52:18.748Z,61
2018-02-27T12:53:21.192Z,61
2018-02-27T12:54:23.611Z,61
2018-02-27T12:55:26.026Z,61
2018-02-27T12:56:28.458Z,61
2018-02-27T12:57:30.888Z,60
2018-02-27T12:58:33.314Z,60
2018-02-27T12:59:35.742Z,59
2018-02-27T13:00:38.165Z,58
2018-02-27T13:01:40.593Z,58
2018-02-27T13:02:43.029Z,57
2018-02-27T13:03:45.447Z,58
2018-02-27T13:04:47.864Z,57
2018-02-27T13:05:50.292Z,54
2018-02-27T13:06:53.002Z,54
2018-02-27T13:07:55.429Z,53
2018-02-27T13:08:57.864Z,51
2018-02-27T13:10:00.292Z,52
2018-02-27T13:11:02.724Z,51
2018-02-27T13:12:05.174Z,50
2018-02-27T13:13:07.609Z,50
2018-02-27T13:14:10.043Z,50
2018-02-27T13:15:12.494Z,49
2018-02-27T13:16:14.930Z,48
2018-02-27T13:17:17.393Z,49
2018-02-27T13:18:20.147Z,49
2018-02-27T13:19:22.577Z,50
2018-02-27T13:20:25.303Z,48
2018-02-27T13:21:27.750Z,48
2018-02-27T13:22:30.188Z,48
2018-02-27T13:23:32.893Z,49
2018-02-27T13:24:35.344Z,49
2018-02-27T13:25:37.778Z,48
2018-02-27T13:26:40.226Z,47
2018-02-27T13:27:42.691Z,46
2018-02-27T13:28:45.120Z,47
2018-02-27T13:29:47.561Z,45
2018-02-27T13:30:50.014Z,45
2018-02-27T13:31:52.445Z,46
2018-02-27T13:32:54.881Z,43
2018-02-27T13:33:57.605Z,44
2018-02-27T13:35:00.034Z,43
2018-02-27T13:36:02.501Z,43
2018-02-27T13:37:05.296Z,43
2018-02-27T13:38:07.738Z,43
2018-02-27T13:39:10.175Z,44
2018-02-27T13:40:12.613Z,44
2018-02-27T13:41:15.647Z,44
2018-02-27T13:42:18.189Z,44
2018-02-27T13:43:20.667Z,45
2018-02-27T13:44:23.112Z,44
2018-02-27T13:45:25.837Z,45
2018-02-27T13:46:28.279Z,44
2018-02-27T13:47:31.011Z,45
2018-02-27T13:48:33.757Z,46
2018-02-27T13:49:36.190Z,45
2018-02-27T13:50:38.618Z,45
2018-02-27T13:51:41.072Z,46
2018-02-27T13:52:43.569Z,46
2018-02-27T13:53:45.957Z,46
2018-02-27T13:54:48.693Z,46
2018-02-27T13:55:51.123Z,45
2018-02-27T13:56:53.579Z,45
2018-02-27T13:57:56.404Z,46
2018-02-27T13:58:58.798Z,47
2018-02-27T14:00:01.229Z,46
2018-02-27T14:01:03.661Z,46
2018-02-27T14:02:06.092Z,47
2018-02-27T14:03:08.543Z,46
2018-02-27T14:04:10.985Z,46
2018-02-27T14:05:13.410Z,47
2018-02-27T14:06:15.866Z,48
2018-02-27T14:07:18.312Z,49
2018-02-27T14:08:20.735Z,49
2018-02-27T14:09:23.163Z,49
2018-02-27T14:10:25.596Z,48
2018-02-27T14:11:28.031Z,49
2018-02-27T14:12:30.480Z,49
2018-02-27T14:13:33.210Z,49
2018-02-27T14:14:35.634Z,49
2018-02-27T14:15:38.100Z,49
2018-02-27T14:16:40.534Z,49
2018-02-27T14:17:43.261Z,50
2018-02-27T14:18:45.693Z,50
2018-02-27T14:19:48.114Z,49
2018-02-27T14:20:50.838Z,50
2018-02-27T14:21:53.270Z,50
2018-02-27T14:22:55.694Z,50
2018-02-27T14:23:58.124Z,50
2018-02-27T14:25:00.544Z,50
2018-02-27T14:26:03.282Z,51
2018-02-27T14:27:05.704Z,52